sensor_id;sensor_type;location;lat;lon;timestamp;P1;durP1;ratioP1;P2;durP2;ratioP2
17773;SDS011;9011;33.236;-97.118;2023-07-16T00:00:38;11.88;;;7.57;;
17773;SDS011;9011;33.236;-97.118;2023-07-16T00:03:08;12.13;;;6.07;;
17773;SDS011;9011;33.236;-97.118;2023-07-16T00:05:37;11.48;;;6.78;;
17773;SDS011;9011;33.236;-97.118;2023-07-16T00:08:05;21.73;;;6.78;;
17773;SDS011;9011;33.236;-97.118;2023-07-16T00:10:34;15.40;;;7.15;;
17773;SDS011;9011;33.236;-97.118;2023-07-16T00:13:03;11.43;;;6.40;;
17773;SDS011;9011;33.236;-97.118;2023-07-16T00:15:31;20.77;;;8.23;;
17773;SDS011;9011;33.236;-97.118;2023-07-16T00:18:00;10.85;;;6.05;;
17773;SDS011;9011;33.236;-97.118;2023-07-16T00:20:30;11.30;;;6.18;;
17773;SDS011;9011;33.236;-97.118;2023-07-16T00:22:59;12.13;;;6.35;;
17773;SDS011;9011;33.236;-97.118;2023-07-16T00:25:27;13.52;;;6.28;;
17773;SDS011;9011;33.236;-97.118;2023-07-16T00:27:55;13.55;;;6.40;;
17773;SDS011;9011;33.236;-97.118;2023-07-16T00:30:24;8.10;;;6.10;;
17773;SDS011;9011;33.236;-97.118;2023-07-16T00:32:53;11.77;;;7.05;;
17773;SDS011;9011;33.236;-97.118;2023-07-16T00:35:21;10.38;;;6.57;;
17773;SDS011;9011;33.236;-97.118;2023-07-16T00:37:51;10.85;;;5.90;;
17773;SDS011;9011;33.236;-97.118;2023-07-16T00:40:19;11.30;;;6.13;;
17773;SDS011;9011;33.236;-97.118;2023-07-16T00:42:47;11.13;;;6.15;;
17773;SDS011;9011;33.236;-97.118;2023-07-16T00:45:16;11.13;;;6.45;;
17773;SDS011;9011;33.236;-97.118;2023-07-16T00:47:44;10.15;;;6.32;;
17773;SDS011;9011;33.236;-97.118;2023-07-16T00:50:13;11.77;;;5.95;;
17773;SDS011;9011;33.236;-97.118;2023-07-16T00:52:42;12.38;;;5.90;;
17773;SDS011;9011;33.236;-97.118;2023-07-16T00:55:12;11.05;;;5.72;;
17773;SDS011;9011;33.236;-97.118;2023-07-16T00:57:41;10.82;;;6.18;;
17773;SDS011;9011;33.236;-97.118;2023-07-16T01:00:10;7.57;;;5.53;;
17773;SDS011;9011;33.236;-97.118;2023-07-16T01:02:39;16.08;;;6.65;;
17773;SDS011;9011;33.236;-97.118;2023-07-16T01:05:08;10.68;;;6.10;;
17773;SDS011;9011;33.236;-97.118;2023-07-16T01:07:36;14.50;;;6.85;;
17773;SDS011;9011;33.236;-97.118;2023-07-16T01:10:07;10.85;;;6.15;;
17773;SDS011;9011;33.236;-97.118;2023-07-16T01:12:38;10.23;;;5.88;;
17773;SDS011;9011;33.236;-97.118;2023-07-16T01:15:07;9.65;;;6.10;;
17773;SDS011;9011;33.236;-97.118;2023-07-16T01:17:36;14.50;;;6.47;;
17773;SDS011;9011;33.236;-97.118;2023-07-16T01:20:05;10.55;;;6.32;;
17773;SDS011;9011;33.236;-97.118;2023-07-16T01:22:52;9.23;;;6.53;;
17773;SDS011;9011;33.236;-97.118;2023-07-16T01:25:46;13.73;;;6.57;;
17773;SDS011;9011;33.236;-97.118;2023-07-16T01:28:32;12.43;;;7.18;;
17773;SDS011;9011;33.236;-97.118;2023-07-16T01:31:25;11.48;;;7.13;;
17773;SDS011;9011;33.236;-97.118;2023-07-16T01:33:55;10.80;;;6.63;;
17773;SDS011;9011;33.236;-97.118;2023-07-16T01:36:24;13.70;;;7.13;;
17773;SDS011;9011;33.236;-97.118;2023-07-16T01:38:54;13.65;;;7.72;;
17773;SDS011;9011;33.236;-97.118;2023-07-16T01:41:23;12.77;;;7.13;;
17773;SDS011;9011;33.236;-97.118;2023-07-16T01:43:51;11.75;;;7.28;;
17773;SDS011;9011;33.236;-97.118;2023-07-16T01:46:20;16.92;;;7.65;;
17773;SDS011;9011;33.236;-97.118;2023-07-16T01:48:50;13.52;;;7.32;;
17773;SDS011;9011;33.236;-97.118;2023-07-16T01:51:18;16.00;;;7.05;;
17773;SDS011;9011;33.236;-97.118;2023-07-16T01:53:47;14.52;;;6.85;;
17773;SDS011;9011;33.236;-97.118;2023-07-16T01:56:15;14.27;;;8.10;;
17773;SDS011;9011;33.236;-97.118;2023-07-16T01:58:43;11.00;;;7.05;;
17773;SDS011;9011;33.236;-97.118;2023-07-16T02:01:12;10.35;;;6.70;;
17773;SDS011;9011;33.236;-97.118;2023-07-16T02:03:40;11.10;;;6.90;;
17773;SDS011;9011;33.236;-97.118;2023-07-16T02:06:10;10.95;;;6.45;;
17773;SDS011;9011;33.236;-97.118;2023-07-16T02:08:39;12.45;;;6.95;;
17773;SDS011;9011;33.236;-97.118;2023-07-16T02:11:07;13.55;;;7.20;;
17773;SDS011;9011;33.236;-97.118;2023-07-16T02:13:36;13.05;;;7.50;;
17773;SDS011;9011;33.236;-97.118;2023-07-16T02:16:04;14.10;;;7.22;;
17773;SDS011;9011;33.236;-97.118;2023-07-16T02:18:32;14.07;;;7.00;;
17773;SDS011;9011;33.236;-97.118;2023-07-16T02:21:01;11.75;;;7.50;;
17773;SDS011;9011;33.236;-97.118;2023-07-16T02:23:31;10.57;;;6.85;;
17773;SDS011;9011;33.236;-97.118;2023-07-16T02:26:00;13.20;;;7.75;;
17773;SDS011;9011;33.236;-97.118;2023-07-16T02:28:29;11.00;;;7.10;;
17773;SDS011;9011;33.236;-97.118;2023-07-16T02:30:57;10.27;;;6.68;;
17773;SDS011;9011;33.236;-97.118;2023-07-16T02:33:26;11.80;;;6.55;;
17773;SDS011;9011;33.236;-97.118;2023-07-16T02:35:54;13.95;;;6.85;;
17773;SDS011;9011;33.236;-97.118;2023-07-16T02:38:22;12.95;;;6.93;;
17773;SDS011;9011;33.236;-97.118;2023-07-16T02:40:53;12.23;;;7.10;;
17773;SDS011;9011;33.236;-97.118;2023-07-16T02:43:21;18.33;;;7.97;;
17773;SDS011;9011;33.236;-97.118;2023-07-16T02:45:50;12.30;;;7.35;;
17773;SDS011;9011;33.236;-97.118;2023-07-16T02:48:18;9.07;;;6.80;;
17773;SDS011;9011;33.236;-97.118;2023-07-16T02:50:46;13.93;;;7.10;;
17773;SDS011;9011;33.236;-97.118;2023-07-16T02:53:15;15.18;;;6.93;;
17773;SDS011;9011;33.236;-97.118;2023-07-16T02:55:44;11.88;;;7.20;;
17773;SDS011;9011;33.236;-97.118;2023-07-16T02:58:15;11.10;;;7.53;;
17773;SDS011;9011;33.236;-97.118;2023-07-16T03:00:43;11.30;;;7.47;;
17773;SDS011;9011;33.236;-97.118;2023-07-16T03:03:11;11.40;;;7.28;;
17773;SDS011;9011;33.236;-97.118;2023-07-16T03:05:40;16.35;;;7.72;;
17773;SDS011;9011;33.236;-97.118;2023-07-16T03:08:08;17.17;;;7.78;;
17773;SDS011;9011;33.236;-97.118;2023-07-16T03:10:37;8.23;;;6.90;;
17773;SDS011;9011;33.236;-97.118;2023-07-16T03:13:05;9.07;;;6.70;;
17773;SDS011;9011;33.236;-97.118;2023-07-16T03:15:35;9.32;;;6.65;;
17773;SDS011;9011;33.236;-97.118;2023-07-16T03:18:04;11.98;;;6.75;;
17773;SDS011;9011;33.236;-97.118;2023-07-16T03:20:32;7.60;;;6.75;;
17773;SDS011;9011;33.236;-97.118;2023-07-16T03:23:00;13.00;;;6.15;;
17773;SDS011;9011;33.236;-97.118;2023-07-16T03:25:29;11.63;;;6.40;;
17773;SDS011;9011;33.236;-97.118;2023-07-16T03:27:57;11.63;;;6.65;;
17773;SDS011;9011;33.236;-97.118;2023-07-16T03:30:26;11.48;;;5.50;;
17773;SDS011;9011;33.236;-97.118;2023-07-16T03:32:56;7.88;;;5.72;;
17773;SDS011;9011;33.236;-97.118;2023-07-16T03:35:24;12.18;;;5.47;;
17773;SDS011;9011;33.236;-97.118;2023-07-16T03:37:53;11.07;;;5.40;;
17773;SDS011;9011;33.236;-97.118;2023-07-16T03:40:23;6.57;;;5.45;;
17773;SDS011;9011;33.236;-97.118;2023-07-16T03:42:52;11.20;;;5.20;;
17773;SDS011;9011;33.236;-97.118;2023-07-16T03:45:20;9.98;;;5.05;;
17773;SDS011;9011;33.236;-97.118;2023-07-16T03:47:49;8.60;;;5.38;;
17773;SDS011;9011;33.236;-97.118;2023-07-16T03:50:19;11.55;;;5.28;;
17773;SDS011;9011;33.236;-97.118;2023-07-16T03:52:47;7.45;;;4.80;;
17773;SDS011;9011;33.236;-97.118;2023-07-16T03:55:16;6.68;;;4.60;;
17773;SDS011;9011;33.236;-97.118;2023-07-16T03:57:45;10.30;;;4.55;;
17773;SDS011;9011;33.236;-97.118;2023-07-16T04:00:13;7.32;;;4.70;;
17773;SDS011;9011;33.236;-97.118;2023-07-16T04:02:41;6.60;;;4.47;;
17773;SDS011;9011;33.236;-97.118;2023-07-16T04:05:10;8.05;;;4.60;;
17773;SDS011;9011;33.236;-97.118;2023-07-16T04:07:40;7.07;;;4.68;;
17773;SDS011;9011;33.236;-97.118;2023-07-16T04:10:08;8.18;;;4.88;;
17773;SDS011;9011;33.236;-97.118;2023-07-16T04:12:37;8.68;;;4.90;;
17773;SDS011;9011;33.236;-97.118;2023-07-16T04:15:07;8.40;;;4.80;;
17773;SDS011;9011;33.236;-97.118;2023-07-16T04:17:37;9.77;;;5.10;;
17773;SDS011;9011;33.236;-97.118;2023-07-16T04:20:05;7.13;;;4.53;;
17773;SDS011;9011;33.236;-97.118;2023-07-16T04:22:34;9.48;;;5.60;;
17773;SDS011;9011;33.236;-97.118;2023-07-16T04:25:06;8.38;;;4.97;;
17773;SDS011;9011;33.236;-97.118;2023-07-16T04:27:35;5.05;;;4.20;;
17773;SDS011;9011;33.236;-97.118;2023-07-16T04:30:06;5.35;;;4.75;;
17773;SDS011;9011;33.236;-97.118;2023-07-16T04:32:35;7.18;;;4.53;;
17773;SDS011;9011;33.236;-97.118;2023-07-16T04:35:07;6.57;;;4.47;;
17773;SDS011;9011;33.236;-97.118;2023-07-16T04:37:36;6.93;;;4.18;;
17773;SDS011;9011;33.236;-97.118;2023-07-16T04:40:06;11.55;;;5.03;;
17773;SDS011;9011;33.236;-97.118;2023-07-16T04:42:36;8.52;;;4.35;;
17773;SDS011;9011;33.236;-97.118;2023-07-16T04:45:04;7.88;;;4.80;;
17773;SDS011;9011;33.236;-97.118;2023-07-16T04:47:33;7.50;;;4.43;;
17773;SDS011;9011;33.236;-97.118;2023-07-16T04:50:02;7.90;;;4.53;;
17773;SDS011;9011;33.236;-97.118;2023-07-16T04:52:30;7.60;;;4.53;;
17773;SDS011;9011;33.236;-97.118;2023-07-16T04:54:59;6.72;;;4.60;;
17773;SDS011;9011;33.236;-97.118;2023-07-16T04:57:29;7.85;;;4.43;;
17773;SDS011;9011;33.236;-97.118;2023-07-16T04:59:57;8.43;;;4.07;;
17773;SDS011;9011;33.236;-97.118;2023-07-16T05:02:26;7.28;;;5.00;;
17773;SDS011;9011;33.236;-97.118;2023-07-16T05:04:55;5.22;;;4.30;;
17773;SDS011;9011;33.236;-97.118;2023-07-16T05:07:23;8.63;;;4.55;;
17773;SDS011;9011;33.236;-97.118;2023-07-16T05:09:52;7.13;;;4.03;;
17773;SDS011;9011;33.236;-97.118;2023-07-16T05:12:20;7.10;;;3.42;;
17773;SDS011;9011;33.236;-97.118;2023-07-16T05:14:51;4.70;;;3.65;;
17773;SDS011;9011;33.236;-97.118;2023-07-16T05:17:19;5.95;;;3.55;;
17773;SDS011;9011;33.236;-97.118;2023-07-16T05:19:48;4.43;;;3.97;;
17773;SDS011;9011;33.236;-97.118;2023-07-16T05:22:17;5.90;;;4.15;;
17773;SDS011;9011;33.236;-97.118;2023-07-16T05:24:45;5.82;;;3.92;;
17773;SDS011;9011;33.236;-97.118;2023-07-16T05:27:14;5.05;;;3.58;;
17773;SDS011;9011;33.236;-97.118;2023-07-16T05:29:42;5.95;;;3.70;;
17773;SDS011;9011;33.236;-97.118;2023-07-16T05:32:12;4.30;;;3.60;;
17773;SDS011;9011;33.236;-97.118;2023-07-16T05:34:40;3.63;;;3.33;;
17773;SDS011;9011;33.236;-97.118;2023-07-16T05:37:09;4.25;;;3.60;;
17773;SDS011;9011;33.236;-97.118;2023-07-16T05:39:37;5.43;;;3.60;;
17773;SDS011;9011;33.236;-97.118;2023-07-16T05:42:05;4.80;;;3.65;;
17773;SDS011;9011;33.236;-97.118;2023-07-16T05:44:34;5.00;;;3.92;;
17773;SDS011;9011;33.236;-97.118;2023-07-16T05:47:03;7.60;;;3.70;;
17773;SDS011;9011;33.236;-97.118;2023-07-16T05:49:35;4.28;;;3.70;;
17773;SDS011;9011;33.236;-97.118;2023-07-16T05:52:04;4.20;;;3.60;;
17773;SDS011;9011;33.236;-97.118;2023-07-16T05:54:34;7.28;;;3.72;;
17773;SDS011;9011;33.236;-97.118;2023-07-16T05:57:02;4.55;;;3.65;;
17773;SDS011;9011;33.236;-97.118;2023-07-16T05:59:31;5.88;;;4.05;;
17773;SDS011;9011;33.236;-97.118;2023-07-16T06:02:01;4.50;;;3.80;;
17773;SDS011;9011;33.236;-97.118;2023-07-16T06:04:30;5.57;;;4.22;;
17773;SDS011;9011;33.236;-97.118;2023-07-16T06:07:00;7.53;;;3.70;;
17773;SDS011;9011;33.236;-97.118;2023-07-16T06:09:29;5.53;;;3.83;;
17773;SDS011;9011;33.236;-97.118;2023-07-16T06:11:58;4.22;;;3.50;;
17773;SDS011;9011;33.236;-97.118;2023-07-16T06:14:26;5.78;;;3.70;;
17773;SDS011;9011;33.236;-97.118;2023-07-16T06:16:54;5.68;;;3.53;;
17773;SDS011;9011;33.236;-97.118;2023-07-16T06:19:23;4.68;;;3.63;;
17773;SDS011;9011;33.236;-97.118;2023-07-16T06:21:52;5.90;;;4.30;;
17773;SDS011;9011;33.236;-97.118;2023-07-16T06:24:22;4.78;;;3.63;;
17773;SDS011;9011;33.236;-97.118;2023-07-16T06:26:51;5.85;;;3.72;;
17773;SDS011;9011;33.236;-97.118;2023-07-16T06:29:19;5.22;;;4.22;;
17773;SDS011;9011;33.236;-97.118;2023-07-16T06:31:54;6.50;;;3.80;;
17773;SDS011;9011;33.236;-97.118;2023-07-16T06:34:25;4.38;;;3.67;;
17773;SDS011;9011;33.236;-97.118;2023-07-16T06:36:54;3.72;;;3.40;;
17773;SDS011;9011;33.236;-97.118;2023-07-16T06:39:24;5.45;;;4.18;;
17773;SDS011;9011;33.236;-97.118;2023-07-16T06:41:52;5.95;;;4.18;;
17773;SDS011;9011;33.236;-97.118;2023-07-16T06:44:21;6.03;;;3.80;;
17773;SDS011;9011;33.236;-97.118;2023-07-16T06:46:50;4.60;;;3.67;;
17773;SDS011;9011;33.236;-97.118;2023-07-16T06:49:18;5.63;;;4.20;;
17773;SDS011;9011;33.236;-97.118;2023-07-16T06:51:47;4.20;;;3.67;;
17773;SDS011;9011;33.236;-97.118;2023-07-16T06:54:15;5.75;;;4.03;;
17773;SDS011;9011;33.236;-97.118;2023-07-16T06:56:45;4.47;;;4.07;;
17773;SDS011;9011;33.236;-97.118;2023-07-16T06:59:14;5.60;;;3.72;;
17773;SDS011;9011;33.236;-97.118;2023-07-16T07:01:42;4.90;;;4.30;;
17773;SDS011;9011;33.236;-97.118;2023-07-16T07:04:11;4.45;;;3.72;;
17773;SDS011;9011;33.236;-97.118;2023-07-16T07:06:39;5.97;;;3.75;;
17773;SDS011;9011;33.236;-97.118;2023-07-16T07:09:08;4.93;;;4.10;;
17773;SDS011;9011;33.236;-97.118;2023-07-16T07:11:36;6.18;;;4.13;;
17773;SDS011;9011;33.236;-97.118;2023-07-16T07:14:06;7.47;;;4.22;;
17773;SDS011;9011;33.236;-97.118;2023-07-16T07:16:35;6.75;;;4.05;;
17773;SDS011;9011;33.236;-97.118;2023-07-16T07:19:05;5.78;;;3.88;;
17773;SDS011;9011;33.236;-97.118;2023-07-16T07:21:33;7.20;;;4.35;;
17773;SDS011;9011;33.236;-97.118;2023-07-16T07:24:02;5.70;;;3.88;;
17773;SDS011;9011;33.236;-97.118;2023-07-16T07:26:31;8.85;;;5.15;;
17773;SDS011;9011;33.236;-97.118;2023-07-16T07:28:59;8.52;;;4.25;;
17773;SDS011;9011;33.236;-97.118;2023-07-16T07:31:29;5.05;;;4.18;;
17773;SDS011;9011;33.236;-97.118;2023-07-16T07:33:57;7.35;;;4.15;;
17773;SDS011;9011;33.236;-97.118;2023-07-16T07:36:26;5.55;;;4.18;;
17773;SDS011;9011;33.236;-97.118;2023-07-16T07:38:54;7.60;;;4.43;;
17773;SDS011;9011;33.236;-97.118;2023-07-16T07:41:23;5.85;;;3.97;;
17773;SDS011;9011;33.236;-97.118;2023-07-16T07:43:51;8.35;;;4.40;;
17773;SDS011;9011;33.236;-97.118;2023-07-16T07:46:20;6.18;;;4.22;;
17773;SDS011;9011;33.236;-97.118;2023-07-16T07:48:50;7.13;;;4.20;;
17773;SDS011;9011;33.236;-97.118;2023-07-16T07:51:19;7.90;;;4.68;;
17773;SDS011;9011;33.236;-97.118;2023-07-16T07:53:48;8.57;;;4.30;;
17773;SDS011;9011;33.236;-97.118;2023-07-16T07:56:16;3.80;;;3.40;;
17773;SDS011;9011;33.236;-97.118;2023-07-16T07:58:45;7.22;;;4.50;;
17773;SDS011;9011;33.236;-97.118;2023-07-16T08:01:13;8.43;;;4.10;;
17773;SDS011;9011;33.236;-97.118;2023-07-16T08:03:42;6.95;;;4.50;;
17773;SDS011;9011;33.236;-97.118;2023-07-16T08:06:13;10.38;;;4.07;;
17773;SDS011;9011;33.236;-97.118;2023-07-16T08:08:41;6.30;;;3.97;;
17773;SDS011;9011;33.236;-97.118;2023-07-16T08:11:09;6.18;;;3.42;;
17773;SDS011;9011;33.236;-97.118;2023-07-16T08:13:38;6.05;;;5.07;;
17773;SDS011;9011;33.236;-97.118;2023-07-16T08:16:06;5.82;;;4.25;;
17773;SDS011;9011;33.236;-97.118;2023-07-16T08:18:34;4.88;;;3.72;;
17773;SDS011;9011;33.236;-97.118;2023-07-16T08:21:03;5.03;;;4.18;;
17773;SDS011;9011;33.236;-97.118;2023-07-16T08:23:33;5.85;;;4.57;;
17773;SDS011;9011;33.236;-97.118;2023-07-16T08:26:02;5.28;;;3.88;;
17773;SDS011;9011;33.236;-97.118;2023-07-16T08:28:30;6.10;;;4.70;;
17773;SDS011;9011;33.236;-97.118;2023-07-16T08:30:59;5.57;;;4.10;;
17773;SDS011;9011;33.236;-97.118;2023-07-16T08:33:27;6.18;;;4.07;;
17773;SDS011;9011;33.236;-97.118;2023-07-16T08:35:55;6.70;;;4.57;;
17773;SDS011;9011;33.236;-97.118;2023-07-16T08:38:24;5.20;;;4.28;;
17773;SDS011;9011;33.236;-97.118;2023-07-16T08:40:54;6.22;;;4.45;;
17773;SDS011;9011;33.236;-97.118;2023-07-16T08:43:22;4.38;;;3.80;;
17773;SDS011;9011;33.236;-97.118;2023-07-16T08:45:51;7.40;;;4.35;;
17773;SDS011;9011;33.236;-97.118;2023-07-16T08:48:20;7.35;;;4.30;;
17773;SDS011;9011;33.236;-97.118;2023-07-16T08:50:48;5.50;;;4.07;;
17773;SDS011;9011;33.236;-97.118;2023-07-16T08:53:17;5.05;;;4.13;;
17773;SDS011;9011;33.236;-97.118;2023-07-16T08:55:46;5.85;;;4.55;;
17773;SDS011;9011;33.236;-97.118;2023-07-16T08:58:16;5.47;;;3.92;;
17773;SDS011;9011;33.236;-97.118;2023-07-16T09:00:44;5.40;;;4.20;;
17773;SDS011;9011;33.236;-97.118;2023-07-16T09:03:15;5.05;;;3.63;;
17773;SDS011;9011;33.236;-97.118;2023-07-16T09:05:44;5.68;;;4.93;;
17773;SDS011;9011;33.236;-97.118;2023-07-16T09:08:12;5.22;;;4.13;;
17773;SDS011;9011;33.236;-97.118;2023-07-16T09:10:41;6.15;;;4.30;;
17773;SDS011;9011;33.236;-97.118;2023-07-16T09:13:10;6.05;;;3.90;;
17773;SDS011;9011;33.236;-97.118;2023-07-16T09:15:40;6.15;;;3.80;;
17773;SDS011;9011;33.236;-97.118;2023-07-16T09:18:10;5.72;;;3.70;;
17773;SDS011;9011;33.236;-97.118;2023-07-16T09:20:39;5.90;;;4.20;;
17773;SDS011;9011;33.236;-97.118;2023-07-16T09:23:09;5.35;;;4.10;;
17773;SDS011;9011;33.236;-97.118;2023-07-16T09:25:37;4.78;;;4.28;;
17773;SDS011;9011;33.236;-97.118;2023-07-16T09:28:07;6.40;;;4.32;;
17773;SDS011;9011;33.236;-97.118;2023-07-16T09:30:36;5.05;;;3.85;;
17773;SDS011;9011;33.236;-97.118;2023-07-16T09:33:11;6.63;;;3.97;;
17773;SDS011;9011;33.236;-97.118;2023-07-16T09:35:40;5.18;;;3.95;;
17773;SDS011;9011;33.236;-97.118;2023-07-16T09:38:09;6.03;;;4.43;;
17773;SDS011;9011;33.236;-97.118;2023-07-16T09:40:38;4.03;;;3.55;;
17773;SDS011;9011;33.236;-97.118;2023-07-16T09:43:08;4.38;;;3.67;;
17773;SDS011;9011;33.236;-97.118;2023-07-16T09:45:37;5.10;;;3.70;;
17773;SDS011;9011;33.236;-97.118;2023-07-16T09:48:07;4.75;;;4.03;;
17773;SDS011;9011;33.236;-97.118;2023-07-16T09:50:37;6.90;;;3.97;;
17773;SDS011;9011;33.236;-97.118;2023-07-16T09:53:12;4.72;;;4.03;;
17773;SDS011;9011;33.236;-97.118;2023-07-16T09:55:45;5.60;;;3.95;;
17773;SDS011;9011;33.236;-97.118;2023-07-16T09:58:15;4.88;;;3.72;;
17773;SDS011;9011;33.236;-97.118;2023-07-16T10:00:48;4.28;;;3.88;;
17773;SDS011;9011;33.236;-97.118;2023-07-16T10:03:17;5.10;;;3.70;;
17773;SDS011;9011;33.236;-97.118;2023-07-16T10:05:47;5.45;;;3.85;;
17773;SDS011;9011;33.236;-97.118;2023-07-16T10:08:17;6.63;;;4.43;;
17773;SDS011;9011;33.236;-97.118;2023-07-16T10:10:47;4.82;;;4.05;;
17773;SDS011;9011;33.236;-97.118;2023-07-16T10:13:18;4.82;;;4.40;;
17773;SDS011;9011;33.236;-97.118;2023-07-16T10:15:52;4.20;;;3.80;;
17773;SDS011;9011;33.236;-97.118;2023-07-16T10:18:25;4.55;;;4.07;;
17773;SDS011;9011;33.236;-97.118;2023-07-16T10:21:02;6.35;;;3.97;;
17773;SDS011;9011;33.236;-97.118;2023-07-16T10:23:39;4.88;;;3.55;;
17773;SDS011;9011;33.236;-97.118;2023-07-16T10:26:09;4.00;;;3.60;;
17773;SDS011;9011;33.236;-97.118;2023-07-16T10:28:40;6.57;;;3.97;;
17773;SDS011;9011;33.236;-97.118;2023-07-16T10:31:17;5.05;;;3.70;;
17773;SDS011;9011;33.236;-97.118;2023-07-16T10:33:56;8.32;;;3.97;;
17773;SDS011;9011;33.236;-97.118;2023-07-16T10:36:36;4.20;;;3.80;;
17773;SDS011;9011;33.236;-97.118;2023-07-16T10:39:06;4.70;;;3.50;;
17773;SDS011;9011;33.236;-97.118;2023-07-16T10:41:34;3.75;;;3.38;;
17773;SDS011;9011;33.236;-97.118;2023-07-16T10:44:03;4.30;;;3.90;;
17773;SDS011;9011;33.236;-97.118;2023-07-16T10:46:35;4.18;;;3.33;;
17773;SDS011;9011;33.236;-97.118;2023-07-16T10:49:05;4.18;;;3.58;;
17773;SDS011;9011;33.236;-97.118;2023-07-16T10:51:35;4.45;;;3.65;;
17773;SDS011;9011;33.236;-97.118;2023-07-16T10:54:03;4.35;;;3.95;;
17773;SDS011;9011;33.236;-97.118;2023-07-16T10:56:34;4.75;;;3.50;;
17773;SDS011;9011;33.236;-97.118;2023-07-16T10:59:04;3.83;;;3.50;;
17773;SDS011;9011;33.236;-97.118;2023-07-16T11:01:33;6.35;;;3.70;;
17773;SDS011;9011;33.236;-97.118;2023-07-16T11:04:06;4.75;;;3.67;;
17773;SDS011;9011;33.236;-97.118;2023-07-16T11:06:39;4.88;;;3.72;;
17773;SDS011;9011;33.236;-97.118;2023-07-16T11:09:08;4.10;;;3.70;;
17773;SDS011;9011;33.236;-97.118;2023-07-16T11:11:36;5.30;;;3.47;;
17773;SDS011;9011;33.236;-97.118;2023-07-16T11:14:05;4.07;;;3.78;;
17773;SDS011;9011;33.236;-97.118;2023-07-16T11:16:35;4.80;;;3.60;;
17773;SDS011;9011;33.236;-97.118;2023-07-16T11:19:04;4.50;;;3.85;;
17773;SDS011;9011;33.236;-97.118;2023-07-16T11:21:33;4.13;;;3.72;;
17773;SDS011;9011;33.236;-97.118;2023-07-16T11:24:09;4.88;;;3.72;;
17773;SDS011;9011;33.236;-97.118;2023-07-16T11:26:49;5.28;;;3.50;;
17773;SDS011;9011;33.236;-97.118;2023-07-16T11:29:19;3.92;;;3.40;;
17773;SDS011;9011;33.236;-97.118;2023-07-16T11:31:48;4.25;;;3.85;;
17773;SDS011;9011;33.236;-97.118;2023-07-16T11:34:19;5.20;;;3.75;;
17773;SDS011;9011;33.236;-97.118;2023-07-16T11:36:48;4.78;;;4.28;;
17773;SDS011;9011;33.236;-97.118;2023-07-16T11:39:19;3.80;;;3.50;;
17773;SDS011;9011;33.236;-97.118;2023-07-16T11:41:55;4.53;;;3.80;;
17773;SDS011;9011;33.236;-97.118;2023-07-16T11:44:23;5.45;;;3.42;;
17773;SDS011;9011;33.236;-97.118;2023-07-16T11:46:52;3.72;;;3.20;;
17773;SDS011;9011;33.236;-97.118;2023-07-16T11:49:20;5.63;;;3.63;;
17773;SDS011;9011;33.236;-97.118;2023-07-16T11:51:49;4.18;;;3.45;;
17773;SDS011;9011;33.236;-97.118;2023-07-16T11:54:19;4.57;;;3.67;;
17773;SDS011;9011;33.236;-97.118;2023-07-16T11:56:47;4.75;;;3.28;;
17773;SDS011;9011;33.236;-97.118;2023-07-16T11:59:16;5.00;;;3.70;;
17773;SDS011;9011;33.236;-97.118;2023-07-16T12:01:47;4.65;;;3.60;;
17773;SDS011;9011;33.236;-97.118;2023-07-16T12:04:16;4.00;;;3.58;;
17773;SDS011;9011;33.236;-97.118;2023-07-16T12:06:44;5.30;;;3.72;;
17773;SDS011;9011;33.236;-97.118;2023-07-16T12:09:13;5.03;;;3.47;;
17773;SDS011;9011;33.236;-97.118;2023-07-16T12:11:44;6.43;;;3.70;;
17773;SDS011;9011;33.236;-97.118;2023-07-16T12:14:13;4.00;;;3.70;;
17773;SDS011;9011;33.236;-97.118;2023-07-16T12:16:41;5.15;;;3.70;;
17773;SDS011;9011;33.236;-97.118;2023-07-16T12:19:10;4.03;;;3.63;;
17773;SDS011;9011;33.236;-97.118;2023-07-16T12:21:38;5.28;;;3.67;;
17773;SDS011;9011;33.236;-97.118;2023-07-16T12:24:14;5.15;;;3.90;;
17773;SDS011;9011;33.236;-97.118;2023-07-16T12:26:44;6.07;;;4.03;;
17773;SDS011;9011;33.236;-97.118;2023-07-16T12:29:12;5.05;;;3.75;;
17773;SDS011;9011;33.236;-97.118;2023-07-16T12:31:40;4.90;;;4.30;;
17773;SDS011;9011;33.236;-97.118;2023-07-16T12:34:09;5.72;;;4.05;;
17773;SDS011;9011;33.236;-97.118;2023-07-16T12:36:39;4.32;;;3.58;;
17773;SDS011;9011;33.236;-97.118;2023-07-16T12:39:07;4.53;;;4.13;;
17773;SDS011;9011;33.236;-97.118;2023-07-16T12:41:36;5.60;;;3.78;;
17773;SDS011;9011;33.236;-97.118;2023-07-16T12:44:06;10.18;;;4.15;;
17773;SDS011;9011;33.236;-97.118;2023-07-16T12:46:37;4.30;;;3.80;;
17773;SDS011;9011;33.236;-97.118;2023-07-16T12:49:05;5.75;;;4.13;;
17773;SDS011;9011;33.236;-97.118;2023-07-16T12:51:34;5.75;;;3.97;;
17773;SDS011;9011;33.236;-97.118;2023-07-16T12:54:02;6.07;;;4.43;;
17773;SDS011;9011;33.236;-97.118;2023-07-16T12:56:30;5.68;;;4.60;;
17773;SDS011;9011;33.236;-97.118;2023-07-16T12:58:59;7.13;;;4.32;;
17773;SDS011;9011;33.236;-97.118;2023-07-16T13:01:29;6.28;;;4.60;;
17773;SDS011;9011;33.236;-97.118;2023-07-16T13:03:57;6.95;;;4.15;;
17773;SDS011;9011;33.236;-97.118;2023-07-16T13:06:26;5.65;;;3.88;;
17773;SDS011;9011;33.236;-97.118;2023-07-16T13:08:54;6.32;;;4.35;;
17773;SDS011;9011;33.236;-97.118;2023-07-16T13:11:23;6.68;;;4.65;;
17773;SDS011;9011;33.236;-97.118;2023-07-16T13:13:52;6.65;;;4.35;;
17773;SDS011;9011;33.236;-97.118;2023-07-16T13:16:20;8.07;;;4.90;;
17773;SDS011;9011;33.236;-97.118;2023-07-16T13:18:54;7.05;;;4.32;;
17773;SDS011;9011;33.236;-97.118;2023-07-16T13:21:22;7.30;;;5.32;;
17773;SDS011;9011;33.236;-97.118;2023-07-16T13:23:51;5.38;;;4.85;;
17773;SDS011;9011;33.236;-97.118;2023-07-16T13:26:20;6.47;;;4.60;;
17773;SDS011;9011;33.236;-97.118;2023-07-16T13:28:48;5.03;;;4.28;;
17773;SDS011;9011;33.236;-97.118;2023-07-16T13:31:17;5.95;;;4.55;;
17773;SDS011;9011;33.236;-97.118;2023-07-16T13:33:46;6.60;;;4.53;;
17773;SDS011;9011;33.236;-97.118;2023-07-16T13:36:16;5.60;;;5.00;;
17773;SDS011;9011;33.236;-97.118;2023-07-16T13:38:44;8.50;;;4.95;;
17773;SDS011;9011;33.236;-97.118;2023-07-16T13:41:13;9.23;;;4.55;;
17773;SDS011;9011;33.236;-97.118;2023-07-16T13:43:42;5.75;;;5.20;;
17773;SDS011;9011;33.236;-97.118;2023-07-16T13:46:10;7.43;;;5.55;;
17773;SDS011;9011;33.236;-97.118;2023-07-16T13:48:38;7.82;;;5.28;;
17773;SDS011;9011;33.236;-97.118;2023-07-16T13:51:07;7.18;;;5.30;;
17773;SDS011;9011;33.236;-97.118;2023-07-16T13:53:37;8.55;;;5.05;;
17773;SDS011;9011;33.236;-97.118;2023-07-16T13:56:06;6.65;;;5.13;;
17773;SDS011;9011;33.236;-97.118;2023-07-16T13:58:34;5.15;;;2.95;;
17773;SDS011;9011;33.236;-97.118;2023-07-16T14:01:03;5.35;;;2.17;;
17773;SDS011;9011;33.236;-97.118;2023-07-16T14:03:31;4.28;;;1.50;;
17773;SDS011;9011;33.236;-97.118;2023-07-16T14:05:59;5.32;;;1.63;;
17773;SDS011;9011;33.236;-97.118;2023-07-16T14:08:28;3.38;;;1.70;;
17773;SDS011;9011;33.236;-97.118;2023-07-16T14:11:01;5.60;;;1.80;;
17773;SDS011;9011;33.236;-97.118;2023-07-16T14:13:29;5.60;;;1.90;;
17773;SDS011;9011;33.236;-97.118;2023-07-16T14:15:58;7.60;;;2.60;;
17773;SDS011;9011;33.236;-97.118;2023-07-16T14:18:26;6.10;;;2.20;;
17773;SDS011;9011;33.236;-97.118;2023-07-16T14:20:55;5.32;;;2.00;;
17773;SDS011;9011;33.236;-97.118;2023-07-16T14:23:23;6.88;;;2.40;;
17773;SDS011;9011;33.236;-97.118;2023-07-16T14:25:51;5.78;;;2.45;;
17773;SDS011;9011;33.236;-97.118;2023-07-16T14:28:21;8.73;;;2.85;;
17773;SDS011;9011;33.236;-97.118;2023-07-16T14:30:50;5.75;;;2.88;;
17773;SDS011;9011;33.236;-97.118;2023-07-16T14:33:18;5.43;;;2.65;;
17773;SDS011;9011;33.236;-97.118;2023-07-16T14:35:46;7.05;;;3.20;;
17773;SDS011;9011;33.236;-97.118;2023-07-16T14:38:15;8.15;;;3.80;;
17773;SDS011;9011;33.236;-97.118;2023-07-16T14:40:43;7.95;;;4.32;;
17773;SDS011;9011;33.236;-97.118;2023-07-16T14:43:11;6.47;;;3.92;;